Time;durP1;ratioP1;P1;durP2;ratioP2;P2;SDS_P1;SDS_P2;PMS_P1;PMS_P2;Temp;Humidity;BMP_temperature;BMP_pressure;BME280_temperature;BME280_humidity;BME280_pressure;Samples;Min_cycle;Max_cycle;Signal;HPM_P1;HPM_P2
2022/03/10 00:00:38;;;;;;;;;;;;;;;17.73;54.49;100115.53;2089133;28;20015;-56
2022/03/10 00:01:39;;;;;;;;;;;;;;;17.71;54.50;100109.34;2089987;28;19921;-56
2022/03/10 00:02:42;;;;;;;;;;;;;;;17.71;54.54;100115.69;2084839;28;19920;-56
2022/03/10 00:03:42;;;;;;;;;;;;;;;17.71;54.66;100118.41;2080327;28;20233;-56
2022/03/10 00:04:43;;;;;;;;;;;;;;;17.72;54.69;100111.09;2082797;28;20310;-56
2022/03/10 00:05:44;;;;;;;;;;;;;;;17.72;54.59;100119.28;2091906;28;20053;-56
2022/03/10 00:06:45;;;;;;;;;;;;;;;17.72;54.56;100122.00;2084791;28;19951;-56
2022/03/10 00:07:45;;;;;;;;;;;;;;;17.72;54.60;100117.41;2082188;28;19924;-56
2022/03/10 00:08:46;;;;;;;;;;;;;;;17.71;54.56;100115.69;2085146;28;19915;-56
2022/03/10 00:09:47;;;;;;;;;;;;;;;17.71;54.81;100115.69;2090077;28;20393;-56
2022/03/10 00:10:47;;;;;;;;;;;;;;;17.71;54.69;100114.81;2093238;28;19939;-56
2022/03/10 00:11:47;;;;;;;;;;;;;;;17.71;54.64;100114.81;2088023;28;19924;-56
2022/03/10 00:12:51;;;;;;;;;;;;;;;17.70;54.67;100113.09;2089964;28;19934;-56
2022/03/10 00:13:52;;;;;;;;;;;;;;;17.69;54.66;100105.94;2090550;28;19920;-56
2022/03/10 00:14:52;;;;;;;;;;;;;;;17.69;54.54;100111.38;2088679;28;19934;-56
2022/03/10 00:15:52;;;;;;;;;;;;;;;17.69;54.48;100108.66;2089721;28;19927;-56
2022/03/10 00:16:53;;;;;;;;;;;;;;;17.68;54.66;100101.47;2093528;28;19935;-56
2022/03/10 00:17:53;;;;;;;;;;;;;;;17.68;54.55;100098.72;2089593;28;20346;-56
2022/03/10 00:18:54;;;;;;;;;;;;;;;17.66;54.49;100098.88;2088913;28;20738;-56
2022/03/10 00:19:54;;;;;;;;;;;;;;;17.67;54.57;100102.47;2079721;28;19924;-56
2022/03/10 00:20:54;;;;;;;;;;;;;;;17.65;54.85;100099.03;2082117;28;19912;-56
2022/03/10 00:21:54;;;;;;;;;;;;;;;17.67;54.63;100105.19;2081656;28;19924;-56
2022/03/10 00:22:56;;;;;;;;;;;;;;;17.66;54.78;100100.72;2086026;28;20357;-56
2022/03/10 00:23:57;;;;;;;;;;;;;;;17.66;54.77;100095.28;2091347;28;19919;-56
2022/03/10 00:24:57;;;;;;;;;;;;;;;17.66;54.62;100098.00;2091906;28;19912;-56
2022/03/10 00:25:57;;;;;;;;;;;;;;;17.65;54.52;100099.03;2089429;28;19959;-56
2022/03/10 00:26:58;;;;;;;;;;;;;;;17.65;54.78;100099.88;2092061;28;19958;-57
2022/03/10 00:27:58;;;;;;;;;;;;;;;17.65;54.71;100099.03;2091158;28;20295;-57
2022/03/10 00:28:58;;;;;;;;;;;;;;;17.65;54.75;100094.44;2092736;28;19980;-56
2022/03/10 00:29:59;;;;;;;;;;;;;;;17.66;54.53;100095.28;2089217;28;19920;-56
2022/03/10 00:30:59;;;;;;;;;;;;;;;17.64;54.73;100100.00;2088393;28;19919;-55
2022/03/10 00:32:01;;;;;;;;;;;;;;;17.65;54.72;100099.03;2087440;28;19916;-56
2022/03/10 00:33:02;;;;;;;;;;;;;;;17.64;54.49;100100.00;2088711;28;20480;-55
2022/03/10 00:34:02;;;;;;;;;;;;;;;17.63;54.79;100087.41;2090754;28;19984;-55
2022/03/10 00:35:02;;;;;;;;;;;;;;;17.65;54.47;100093.56;2085917;28;19928;-56
2022/03/10 00:36:03;;;;;;;;;;;;;;;17.63;54.63;100095.56;2090639;28;20259;-55
2022/03/10 00:37:03;;;;;;;;;;;;;;;17.63;54.79;100095.56;2089944;28;19919;-55
2022/03/10 00:38:04;;;;;;;;;;;;;;;17.65;54.52;100099.03;2091822;28;19912;-55
2022/03/10 00:39:04;;;;;;;;;;;;;;;17.63;54.51;100095.56;2091056;28;19920;-56
2022/03/10 00:40:05;;;;;;;;;;;;;;;17.62;54.62;100093.88;2092198;28;19950;-56
2022/03/10 00:41:05;;;;;;;;;;;;;;;17.64;54.76;100097.28;2087108;28;19956;-55
2022/03/10 00:42:05;;;;;;;;;;;;;;;17.61;54.50;100090.25;2091367;28;20354;-56
2022/03/10 00:43:09;;;;;;;;;;;;;;;17.62;54.64;100093.88;2087387;28;19929;-56
2022/03/10 00:44:10;;;;;;;;;;;;;;;17.61;54.78;100095.69;2085824;28;19913;-56
2022/03/10 00:45:11;;;;;;;;;;;;;;;17.61;54.72;100094.84;2090715;28;19927;-55
2022/03/10 00:46:11;;;;;;;;;;;;;;;17.61;54.88;100092.13;2079044;28;19920;-56
2022/03/10 00:47:12;;;;;;;;;;;;;;;17.61;54.63;100092.13;2079835;28;19924;-55
2022/03/10 00:48:12;;;;;;;;;;;;;;;17.60;54.90;100090.41;2087695;28;20083;-55
2022/03/10 00:49:12;;;;;;;;;;;;;;;17.60;54.78;100095.88;2089712;28;19920;-56
2022/03/10 00:50:13;;;;;;;;;;;;;;;17.59;54.51;100089.56;2090790;28;19926;-56
2022/03/10 00:51:13;;;;;;;;;;;;;;;17.60;54.57;100090.41;2094723;28;19959;-56
2022/03/10 00:52:14;;;;;;;;;;;;;;;17.59;54.72;100097.72;2086483;28;19921;-56
2022/03/10 00:53:14;;;;;;;;;;;;;;;17.58;54.80;100094.13;2088241;28;19920;-56
2022/03/10 00:54:14;;;;;;;;;;;;;;;17.60;54.83;100090.41;2088967;28;19924;-55
2022/03/10 00:55:18;;;;;;;;;;;;;;;17.57;54.72;100092.41;2088328;28;19925;-56
2022/03/10 00:56:18;;;;;;;;;;;;;;;17.57;54.77;100088.81;2091648;28;19931;-55
2022/03/10 00:57:19;;;;;;;;;;;;;;;17.58;54.71;100088.66;2085569;28;19912;-56
2022/03/10 00:58:19;;;;;;;;;;;;;;;17.57;54.58;100084.22;2077718;28;19928;-56
2022/03/10 00:59:20;;;;;;;;;;;;;;;17.58;54.85;100091.38;2090417;28;19919;-56
2022/03/10 01:00:22;;;;;;;;;;;;;;;17.58;54.67;100088.66;2086281;28;19924;-56
2022/03/10 01:01:23;;;;;;;;;;;;;;;17.57;54.75;100086.97;2092445;28;20306;-56
2022/03/10 01:02:23;;;;;;;;;;;;;;;17.57;54.77;100097.00;2085831;28;20030;-56
2022/03/10 01:03:23;;;;;;;;;;;;;;;17.57;54.61;100092.41;2090198;28;20062;-55
2022/03/10 01:04:23;;;;;;;;;;;;;;;17.57;54.75;100094.28;2090121;28;19975;-56
2022/03/10 01:05:24;;;;;;;;;;;;;;;17.58;54.94;100093.25;2089380;28;20573;-56
2022/03/10 01:06:24;;;;;;;;;;;;;;;17.57;54.55;100092.41;2087979;28;19920;-56
2022/03/10 01:07:25;;;;;;;;;;;;;;;17.57;54.68;100086.97;2096945;28;19995;-56
2022/03/10 01:08:25;;;;;;;;;;;;;;;17.57;54.77;100086.09;2092617;28;19919;-56
2022/03/10 01:09:26;;;;;;;;;;;;;;;17.56;54.83;100090.69;2090868;28;19955;-56
2022/03/10 01:10:27;;;;;;;;;;;;;;;17.56;54.67;100089.81;2086248;28;19917;-56
2022/03/10 01:11:27;;;;;;;;;;;;;;;17.55;54.92;100082.66;2090284;28;19929;-56
2022/03/10 01:12:27;;;;;;;;;;;;;;;17.56;54.76;100089.81;2092044;28;19927;-56
2022/03/10 01:13:28;;;;;;;;;;;;;;;17.55;54.81;100093.56;2093444;28;20655;-56
2022/03/10 01:14:28;;;;;;;;;;;;;;;17.55;54.74;100085.38;2087871;28;20301;-56
2022/03/10 01:15:29;;;;;;;;;;;;;;;17.56;54.88;100089.81;2090081;28;20350;-56
2022/03/10 01:16:29;;;;;;;;;;;;;;;17.54;54.97;100092.69;2087087;28;20019;-56
2022/03/10 01:17:30;;;;;;;;;;;;;;;17.54;54.84;100084.53;2092766;28;19920;-56
2022/03/10 01:18:30;;;;;;;;;;;;;;;17.53;54.95;100082.78;2082435;28;20012;-56
2022/03/10 01:19:30;;;;;;;;;;;;;;;17.54;54.86;100084.53;2082588;28;19921;-55
2022/03/10 01:20:31;;;;;;;;;;;;;;;17.52;54.83;100089.25;2089909;28;19990;-56
2022/03/10 01:21:31;;;;;;;;;;;;;;;17.53;54.78;100085.50;2091386;28;19942;-55
2022/03/10 01:22:31;;;;;;;;;;;;;;;17.51;54.89;100082.06;2095178;28;19919;-55
2022/03/10 01:23:31;;;;;;;;;;;;;;;17.53;54.85;100085.50;2088901;28;20309;-55
2022/03/10 01:24:32;;;;;;;;;;;;;;;17.52;54.75;100082.94;2082737;28;20389;-55
2022/03/10 01:25:32;;;;;;;;;;;;;;;17.51;54.88;100076.59;2078237;28;20313;-55
2022/03/10 01:26:33;;;;;;;;;;;;;;;17.51;54.79;100073.88;2085190;28;20009;-56
2022/03/10 01:27:33;;;;;;;;;;;;;;;17.50;54.91;100074.88;2087683;28;20011;-55
2022/03/10 01:28:34;;;;;;;;;;;;;;;17.51;54.92;100081.19;2082475;28;19926;-56
2022/03/10 01:29:34;;;;;;;;;;;;;;;17.50;54.82;100083.06;2079115;28;19913;-55
2022/03/10 01:30:35;;;;;;;;;;;;;;;17.50;55.10;100085.78;2085724;28;19913;-55
2022/03/10 01:31:36;;;;;;;;;;;;;;;17.50;54.81;100077.63;2087061;28;19951;-55
2022/03/10 01:32:36;;;;;;;;;;;;;;;17.50;54.73;100080.34;2084432;28;19970;-56
2022/03/10 01:33:37;;;;;;;;;;;;;;;17.51;54.85;100084.78;2079338;28;19936;-55
2022/03/10 01:34:37;;;;;;;;;;;;;;;17.51;54.72;100087.50;2089944;28;19916;-56
2022/03/10 01:35:38;;;;;;;;;;;;;;;17.51;54.89;100089.38;2081322;28;19924;-56
2022/03/10 01:36:38;;;;;;;;;;;;;;;17.52;54.83;100085.66;2089309;28;19926;-55
2022/03/10 01:37:39;;;;;;;;;;;;;;;17.52;54.91;100089.25;2090978;28;19920;-56
2022/03/10 01:38:39;;;;;;;;;;;;;;;17.52;54.72;100089.25;2082419;28;20294;-56
2022/03/10 01:39:40;;;;;;;;;;;;;;;17.51;54.64;100090.22;2082265;28;20026;-56
2022/03/10 01:40:40;;;;;;;;;;;;;;;17.53;54.71;100096.41;2088615;28;20009;-55
2022/03/10 01:41:41;;;;;;;;;;;;;;;17.53;54.68;100090.97;2093129;28;20385;-55
2022/03/10 01:42:41;;;;;;;;;;;;;;;17.53;54.88;100090.97;2074927;28;19920;-55
2022/03/10 01:43:55;;;;;;;;;;;;;;;17.53;54.72;100096.41;2078579;28;20606;-55
2022/03/10 01:44:55;;;;;;;;;;;;;;;17.54;54.78;100089.97;2091627;28;19912;-55
2022/03/10 01:45:56;;;;;;;;;;;;;;;17.52;54.98;100089.25;2081973;28;19980;-56
2022/03/10 01:46:57;;;;;;;;;;;;;;;17.52;54.75;100088.38;2079701;28;19919;-55
2022/03/10 01:47:57;;;;;;;;;;;;;;;17.54;55.01;100087.25;2092150;28;19924;-55
2022/03/10 01:48:58;;;;;;;;;;;;;;;17.53;55.14;100085.50;2090777;28;20392;-55
2022/03/10 01:49:58;;;;;;;;;;;;;;;17.54;55.02;100086.34;2089237;28;19919;-55
2022/03/10 01:50:58;;;;;;;;;;;;;;;17.53;54.85;100080.06;2091527;28;19920;-55
2022/03/10 01:51:59;;;;;;;;;;;;;;;17.54;54.87;100079.06;2086141;28;20393;-55
2022/03/10 01:53:01;;;;;;;;;;;;;;;17.53;55.04;100080.06;2096805;28;20377;-56
2022/03/10 01:54:03;;;;;;;;;;;;;;;17.54;54.92;100076.34;2086739;28;20600;-56
2022/03/10 01:55:03;;;;;;;;;;;;;;;17.54;54.72;100081.78;2089098;28;19925;-55
2022/03/10 01:56:04;;;;;;;;;;;;;;;17.54;54.97;100075.47;2083861;28;19969;-55
2022/03/10 01:57:05;;;;;;;;;;;;;;;17.51;54.89;100073.88;2085288;28;19917;-55
2022/03/10 01:58:05;;;;;;;;;;;;;;;17.52;54.92;100078.34;2091296;28;20256;-55
2022/03/10 01:59:06;;;;;;;;;;;;;;;17.53;55.03;100082.78;2082137;28;19920;-56
2022/03/10 02:00:07;;;;;;;;;;;;;;;17.54;54.95;100080.91;2080803;28;19916;-55
2022/03/10 02:01:11;;;;;;;;;;;;;;;17.53;54.95;100074.59;2087349;28;19927;-55
2022/03/10 02:02:11;;;;;;;;;;;;;;;17.53;54.97;100077.31;2091076;28;20076;-56
2022/03/10 02:03:11;;;;;;;;;;;;;;;17.52;55.05;100072.88;2089413;28;19916;-56
2022/03/10 02:04:12;;;;;;;;;;;;;;;17.53;54.97;100071.88;2086542;28;19916;-54
2022/03/10 02:05:12;;;;;;;;;;;;;;;17.51;54.89;100073.03;2087023;28;20702;-55
2022/03/10 02:06:13;;;;;;;;;;;;;;;17.53;54.86;100074.59;2091147;28;20282;-55
2022/03/10 02:11:11;;;;;;;;;;;;;;;17.53;54.98;100063.69;2094836;28;19936;-55
2022/03/10 02:12:12;;;;;;;;;;;;;;;17.53;55.04;100062.84;2089901;28;20398;-55
2022/03/10 02:13:12;;;;;;;;;;;;;;;17.54;54.97;100059.09;2090113;28;19920;-55
2022/03/10 02:18:10;;;;;;;;;;;;;;;17.51;55.09;100060.25;2089992;28;19951;-55
2022/03/10 02:19:10;;;;;;;;;;;;;;;17.51;54.93;100057.53;2097354;28;19904;-56
2022/03/10 02:20:11;;;;;;;;;;;;;;;17.51;54.87;100054.78;2098296;28;20269;-55
2022/03/10 02:21:11;;;;;;;;;;;;;;;17.50;54.93;100061.25;2087237;28;20426;-56
2022/03/10 02:22:13;;;;;;;;;;;;;;;17.49;55.02;100056.81;2096909;28;20365;-55
2022/03/10 02:23:13;;;;;;;;;;;;;;;17.47;54.88;100053.38;2088716;28;19923;-55
2022/03/10 02:24:13;;;;;;;;;;;;;;;17.49;55.02;100053.22;2089623;28;19920;-55
2022/03/10 02:25:15;;;;;;;;;;;;;;;17.49;55.08;100051.38;2093865;28;19938;-56
2022/03/10 02:26:15;;;;;;;;;;;;;;;17.48;55.07;100048.78;2088716;28;20234;-56
2022/03/10 02:27:17;;;;;;;;;;;;;;;17.48;55.09;100054.22;2094110;28;19916;-55
2022/03/10 02:28:17;;;;;;;;;;;;;;;17.47;55.00;100053.38;2090045;28;20194;-56
2022/03/10 02:29:18;;;;;;;;;;;;;;;17.47;55.08;100047.06;2093083;28;19915;-56
2022/03/10 02:30:20;;;;;;;;;;;;;;;17.47;55.07;100053.38;2090955;28;19920;-56
2022/03/10 02:31:20;;;;;;;;;;;;;;;17.47;55.16;100052.53;2083661;28;19963;-55
2022/03/10 02:32:21;;;;;;;;;;;;;;;17.48;55.17;100054.22;2090479;28;19920;-55
2022/03/10 02:33:21;;;;;;;;;;;;;;;17.47;54.94;100056.09;2089664;28;19942;-56
2022/03/10 02:34:22;;;;;;;;;;;;;;;17.47;55.00;100047.06;2089624;28;19921;-55
2022/03/10 02:35:22;;;;;;;;;;;;;;;17.46;55.00;100046.19;2090251;28;19923;-56
2022/03/10 02:36:23;;;;;;;;;;;;;;;17.47;54.95;100044.34;2094150;28;20552;-55
2022/03/10 02:37:23;;;;;;;;;;;;;;;17.46;54.86;100040.72;2080590;28;20269;-55
2022/03/10 02:38:24;;;;;;;;;;;;;;;17.47;54.90;100045.19;2083011;28;19978;-56
2022/03/10 02:39:24;;;;;;;;;;;;;;;17.46;54.94;100045.34;2090450;28;20003;-55
2022/03/10 02:40:25;;;;;;;;;;;;;;;17.46;54.78;100042.59;2090000;28;20088;-55
2022/03/10 02:41:25;;;;;;;;;;;;;;;17.46;55.21;100040.72;2091760;28;20501;-55
2022/03/10 02:42:26;;;;;;;;;;;;;;;17.46;54.96;100040.72;2093598;28;19920;-56
2022/03/10 02:43:27;;;;;;;;;;;;;;;17.46;55.05;100039.88;2089348;28;19918;-55
2022/03/10 02:44:27;;;;;;;;;;;;;;;17.46;55.04;100043.47;2099311;28;19919;-56
2022/03/10 02:45:27;;;;;;;;;;;;;;;17.46;54.94;100040.72;2082646;28;19916;-56
2022/03/10 02:46:28;;;;;;;;;;;;;;;17.46;55.17;100040.72;2081479;28;20376;-55
2022/03/10 02:47:28;;;;;;;;;;;;;;;17.44;54.98;100034.59;2087291;28;19944;-55
2022/03/10 02:48:29;;;;;;;;;;;;;;;17.45;55.14;100041.75;2094178;28;19998;-56
2022/03/10 02:49:29;;;;;;;;;;;;;;;17.44;54.84;100045.50;2082916;28;20323;-55
2022/03/10 02:50:29;;;;;;;;;;;;;;;17.44;55.07;100048.22;2086687;28;20350;-56
2022/03/10 02:51:29;;;;;;;;;;;;;;;17.45;55.09;100055.38;2087777;28;19912;-55
2022/03/10 02:52:30;;;;;;;;;;;;;;;17.44;55.06;100050.06;2090802;28;19959;-55
2022/03/10 02:53:30;;;;;;;;;;;;;;;17.44;54.97;100053.66;2090689;28;20000;-55
2022/03/10 02:54:30;;;;;;;;;;;;;;;17.44;55.21;100052.78;2090310;28;19920;-56
2022/03/10 02:55:31;;;;;;;;;;;;;;;17.43;55.14;100046.47;2098127;28;19928;-55
2022/03/10 02:56:31;;;;;;;;;;;;;;;17.44;55.22;100047.31;2092006;28;19927;-56
2022/03/10 02:57:32;;;;;;;;;;;;;;;17.43;55.07;100057.38;2091020;28;20344;-55
2022/03/10 02:58:32;;;;;;;;;;;;;;;17.42;55.04;100047.50;2093606;28;19947;-55
2022/03/10 02:59:33;;;;;;;;;;;;;;;17.42;54.97;100050.22;2092972;28;20006;-55
2022/03/10 03:00:33;;;;;;;;;;;;;;;17.42;55.15;100047.50;2085356;28;19963;-56
2022/03/10 03:01:33;;;;;;;;;;;;;;;17.42;54.91;100052.94;2079740;28;20281;-56
2022/03/10 03:02:34;;;;;;;;;;;;;;;17.42;55.05;100050.22;2092661;28;20473;-55
2022/03/10 03:03:34;;;;;;;;;;;;;;;17.42;55.08;100047.50;2090473;28;19920;-55
2022/03/10 03:04:34;;;;;;;;;;;;;;;17.40;55.00;100049.50;2088767;28;20836;-55
2022/03/10 03:05:35;;;;;;;;;;;;;;;17.42;54.82;100050.22;2093650;28;19923;-55
2022/03/10 03:06:35;;;;;;;;;;;;;;;17.42;55.18;100049.31;2093363;28;19958;-55
2022/03/10 03:07:36;;;;;;;;;;;;;;;17.42;54.88;100043.88;2081283;28;19999;-55
2022/03/10 03:08:36;;;;;;;;;;;;;;;17.42;54.94;100044.75;2080545;28;19948;-55
2022/03/10 03:09:36;;;;;;;;;;;;;;;17.41;55.04;100048.47;2086376;28;19923;-56
2022/03/10 03:10:36;;;;;;;;;;;;;;;17.41;54.99;100051.19;2087071;28;20428;-55
2022/03/10 03:11:37;;;;;;;;;;;;;;;17.41;55.16;100048.47;2092768;28;19980;-55
2022/03/10 03:12:44;;;;;;;;;;;;;;;17.42;54.89;100046.59;2091723;28;19931;-55
2022/03/10 03:13:45;;;;;;;;;;;;;;;17.42;54.97;100043.88;2089587;28;20013;-55
2022/03/10 03:14:45;;;;;;;;;;;;;;;17.40;55.11;100041.31;2091698;28;19920;-56
2022/03/10 03:15:45;;;;;;;;;;;;;;;17.41;55.17;100040.28;2080741;28;20347;-55
2022/03/10 03:16:46;;;;;;;;;;;;;;;17.39;55.09;100042.28;2082306;28;19923;-56
2022/03/10 03:17:47;;;;;;;;;;;;;;;17.41;54.92;100043.03;2089697;28;19926;-56
2022/03/10 03:18:47;;;;;;;;;;;;;;;17.41;55.22;100036.72;2091547;28;20830;-56
2022/03/10 03:19:47;;;;;;;;;;;;;;;17.40;55.06;100040.47;2094271;28;20344;-56
2022/03/10 03:20:48;;;;;;;;;;;;;;;17.40;54.94;100041.31;2090090;28;19924;-56
2022/03/10 03:21:48;;;;;;;;;;;;;;;17.40;54.97;100041.31;2091665;28;20359;-56
2022/03/10 03:22:48;;;;;;;;;;;;;;;17.41;55.10;100042.16;2083941;28;20388;-55
2022/03/10 03:23:49;;;;;;;;;;;;;;;17.41;55.02;100042.16;2091210;28;19912;-56
2022/03/10 03:24:50;;;;;;;;;;;;;;;17.41;55.10;100053.91;2095406;28;19919;-56
2022/03/10 03:25:51;;;;;;;;;;;;;;;17.40;55.04;100041.31;2087480;28;20782;-56
2022/03/10 03:26:51;;;;;;;;;;;;;;;17.40;55.06;100045.91;2090802;28;19950;-55
2022/03/10 03:27:52;;;;;;;;;;;;;;;17.41;54.98;100050.34;2089456;28;19923;-56
2022/03/10 03:28:52;;;;;;;;;;;;;;;17.40;55.24;100046.75;2091445;28;19928;-55
2022/03/10 03:29:52;;;;;;;;;;;;;;;17.40;54.92;100046.75;2094688;28;19920;-55
2022/03/10 03:30:52;;;;;;;;;;;;;;;17.40;55.07;100040.47;2092059;28;20402;-56
2022/03/10 03:31:53;;;;;;;;;;;;;;;17.41;55.22;100048.47;2092352;28;19924;-55
2022/03/10 03:32:54;;;;;;;;;;;;;;;17.40;55.36;100040.47;2090763;28;19924;-55
2022/03/10 03:33:54;;;;;;;;;;;;;;;17.41;55.15;100048.47;2090158;28;20250;-55
2022/03/10 03:34:54;;;;;;;;;;;;;;;17.41;55.24;100045.75;2090696;28;19912;-55
2022/03/10 03:35:54;;;;;;;;;;;;;;;17.42;55.12;100046.59;2091343;28;19920;-55
2022/03/10 03:36:55;;;;;;;;;;;;;;;17.42;55.25;100049.31;2092547;28;19931;-56
2022/03/10 03:37:55;;;;;;;;;;;;;;;17.43;55.12;100053.78;2091884;28;19932;-55
2022/03/10 03:38:56;;;;;;;;;;;;;;;17.41;55.25;100056.66;2091623;28;20481;-56
2022/03/10 03:39:56;;;;;;;;;;;;;;;17.42;55.24;100055.66;2091138;28;19924;-55
2022/03/10 03:40:57;;;;;;;;;;;;;;;17.43;55.18;100053.78;2082662;28;20007;-56
2022/03/10 03:41:57;;;;;;;;;;;;;;;17.42;55.20;100061.13;2081591;28;19924;-56
2022/03/10 03:42:58;;;;;;;;;;;;;;;17.42;55.15;100055.66;2093774;28;20031;-55
2022/03/10 03:43:58;;;;;;;;;;;;;;;17.44;55.16;100058.22;2093325;28;19923;-55
2022/03/10 03:44:58;;;;;;;;;;;;;;;17.44;55.20;100056.38;2097084;28;19927;-56
2022/03/10 03:45:59;;;;;;;;;;;;;;;17.43;55.17;100062.81;2089070;28;19970;-56
2022/03/10 03:47:00;;;;;;;;;;;;;;;17.43;55.05;100051.91;2089159;28;19926;-56
2022/03/10 03:48:00;;;;;;;;;;;;;;;17.43;55.00;100051.91;2086389;28;20415;-56
2022/03/10 03:49:01;;;;;;;;;;;;;;;17.44;55.24;100060.94;2085154;28;20200;-56
2022/03/10 03:50:03;;;;;;;;;;;;;;;17.43;55.12;100060.09;2082619;28;19916;-56
2022/03/10 03:51:04;;;;;;;;;;;;;;;17.43;55.07;100057.38;2083577;28;19928;-56
2022/03/10 03:52:05;;;;;;;;;;;;;;;17.42;55.23;100058.38;2089050;28;20238;-56
2022/03/10 03:53:05;;;;;;;;;;;;;;;17.43;55.14;100056.53;2092242;28;20590;-56
2022/03/10 03:54:07;;;;;;;;;;;;;;;17.42;55.17;100052.94;2087869;28;20398;-55
2022/03/10 03:55:08;;;;;;;;;;;;;;;17.42;55.22;100054.78;2093483;28;19916;-55
2022/03/10 03:56:08;;;;;;;;;;;;;;;17.41;55.04;100059.38;2089012;28;19944;-57
2022/03/10 03:57:09;;;;;;;;;;;;;;;17.42;55.23;100060.22;2088913;28;20019;-57
2022/03/10 03:58:09;;;;;;;;;;;;;;;17.42;55.11;100063.84;2092825;28;19916;-57
2022/03/10 03:59:09;;;;;;;;;;;;;;;17.41;55.25;100059.38;2091425;28;20281;-57
2022/03/10 04:00:10;;;;;;;;;;;;;;;17.41;55.09;100064.81;2080474;28;19913;-57
2022/03/10 04:01:10;;;;;;;;;;;;;;;17.40;55.09;100063.09;2080520;28;20008;-57
2022/03/10 04:02:10;;;;;;;;;;;;;;;17.41;55.21;100070.28;2087446;28;20222;-56
2022/03/10 04:03:11;;;;;;;;;;;;;;;17.40;55.19;100063.09;2089811;28;19920;-56
2022/03/10 04:04:12;;;;;;;;;;;;;;;17.40;55.23;100062.25;2092805;28;20223;-57
2022/03/10 04:05:12;;;;;;;;;;;;;;;17.39;55.27;100064.09;2090290;28;19908;-57
2022/03/10 04:06:13;;;;;;;;;;;;;;;17.39;55.12;100060.50;2094742;28;20018;-56
2022/03/10 04:07:14;;;;;;;;;;;;;;;17.39;55.37;100066.81;2087450;28;20194;-56
2022/03/10 04:08:14;;;;;;;;;;;;;;;17.39;55.24;100060.50;2089097;28;20246;-56
2022/03/10 04:09:15;;;;;;;;;;;;;;;17.38;55.24;100056.94;2086073;28;19912;-57
2022/03/10 04:10:16;;;;;;;;;;;;;;;17.39;55.33;100065.97;2088944;28;19916;-56
2022/03/10 04:11:17;;;;;;;;;;;;;;;17.38;55.21;100059.66;2088892;28;20258;-56
2022/03/10 04:12:17;;;;;;;;;;;;;;;17.38;55.18;100065.09;2092491;28;19916;-55
2022/03/10 04:13:18;;;;;;;;;;;;;;;17.39;55.10;100061.38;2083253;28;19931;-56
2022/03/10 04:14:19;;;;;;;;;;;;;;;17.39;55.21;100060.50;2079790;28;20274;-58
2022/03/10 04:15:20;;;;;;;;;;;;;;;17.39;55.01;100061.38;2085841;28;20395;-56
2022/03/10 04:16:20;;;;;;;;;;;;;;;17.38;55.30;100065.09;2082145;28;20339;-56
2022/03/10 04:17:21;;;;;;;;;;;;;;;17.38;55.20;100065.09;2091874;28;19924;-57
2022/03/10 04:18:21;;;;;;;;;;;;;;;17.38;55.20;100065.09;2096231;28;19920;-57
2022/03/10 04:19:22;;;;;;;;;;;;;;;17.38;55.14;100062.38;2092936;28;19955;-57
2022/03/10 04:20:22;;;;;;;;;;;;;;;17.38;55.16;100065.09;2084816;28;19920;-56
2022/03/10 04:21:23;;;;;;;;;;;;;;;17.38;55.36;100059.66;2082290;28;19963;-56
2022/03/10 04:22:23;;;;;;;;;;;;;;;17.38;55.39;100069.69;2079274;28;19928;-56
2022/03/10 04:23:23;;;;;;;;;;;;;;;17.36;55.30;100067.97;2094299;28;20269;-57
2022/03/10 04:24:23;;;;;;;;;;;;;;;17.37;55.10;100066.13;2091800;28;20011;-57
2022/03/10 04:25:24;;;;;;;;;;;;;;;17.36;55.26;100067.97;2092639;28;20390;-56
2022/03/10 04:26:25;;;;;;;;;;;;;;;17.36;55.38;100067.09;2088801;28;20330;-57
2022/03/10 04:27:25;;;;;;;;;;;;;;;17.36;55.13;100069.81;2090060;28;19923;-57
2022/03/10 04:28:26;;;;;;;;;;;;;;;17.36;55.37;100072.56;2088273;28;20000;-57
2022/03/10 04:29:26;;;;;;;;;;;;;;;17.35;55.21;100066.25;2085977;28;19931;-57
2022/03/10 04:30:26;;;;;;;;;;;;;;;17.34;55.21;100064.53;2090100;28;19935;-56
2022/03/10 04:31:27;;;;;;;;;;;;;;;17.33;55.29;100073.69;2088384;28;19915;-56
2022/03/10 04:32:27;;;;;;;;;;;;;;;17.35;55.05;100070.84;2090313;28;19920;-56
2022/03/10 04:33:28;;;;;;;;;;;;;;;17.34;55.37;100063.66;2089493;28;19925;-56
2022/03/10 04:34:28;;;;;;;;;;;;;;;17.33;55.42;100067.38;2088022;28;19921;-57
2022/03/10 04:35:29;;;;;;;;;;;;;;;17.34;55.38;100067.25;2090342;28;19924;-57
2022/03/10 04:36:29;;;;;;;;;;;;;;;17.33;55.21;100068.25;2092085;28;20443;-57
2022/03/10 04:37:29;;;;;;;;;;;;;;;17.34;55.18;100063.66;2090414;28;19924;-56
2022/03/10 04:38:30;;;;;;;;;;;;;;;17.33;55.41;100068.25;2091123;28;19938;-56
2022/03/10 04:39:30;;;;;;;;;;;;;;;17.33;55.44;100067.38;2080194;28;19969;-56
2022/03/10 04:40:31;;;;;;;;;;;;;;;17.33;55.17;100072.84;2080475;28;20023;-57
2022/03/10 04:41:34;;;;;;;;;;;;;;;17.33;55.08;100072.84;2089491;28;19927;-56
2022/03/10 04:42:34;;;;;;;;;;;;;;;17.34;55.25;100071.81;2095117;28;19920;-57
2022/03/10 04:43:35;;;;;;;;;;;;;;;17.33;55.14;100073.69;2090080;28;19922;-56
2022/03/10 04:44:35;;;;;;;;;;;;;;;17.32;55.25;100071.09;2090346;28;19919;-57
2022/03/10 04:45:36;;;;;;;;;;;;;;;17.32;55.13;100071.09;2086145;28;20603;-56
2022/03/10 04:46:36;;;;;;;;;;;;;;;17.33;55.20;100067.38;2085466;28;19908;-57
2022/03/10 04:47:37;;;;;;;;;;;;;;;17.34;55.15;100069.09;2091505;28;20053;-56
2022/03/10 04:48:38;;;;;;;;;;;;;;;17.33;55.32;100078.28;2089868;28;19920;-56
2022/03/10 04:49:38;;;;;;;;;;;;;;;17.33;55.27;100068.25;2088222;28;19920;-55
2022/03/10 04:50:38;;;;;;;;;;;;;;;17.32;55.24;100065.66;2091014;28;20003;-59
2022/03/10 04:51:38;;;;;;;;;;;;;;;17.33;55.49;100070.13;2091963;28;20260;-56
2022/03/10 04:52:39;;;;;;;;;;;;;;;17.31;55.21;100064.78;2086008;28;20208;-55
2022/03/10 04:53:40;;;;;;;;;;;;;;;17.32;55.29;100065.66;2090533;28;19951;-55
2022/03/10 04:54:41;;;;;;;;;;;;;;;17.32;55.34;100060.19;2097315;28;20765;-55
2022/03/10 04:55:41;;;;;;;;;;;;;;;17.31;55.21;100074.84;2092742;28;20030;-56
2022/03/10 04:56:41;;;;;;;;;;;;;;;17.32;55.23;100071.09;2091154;28;19943;-56
2022/03/10 04:57:42;;;;;;;;;;;;;;;17.30;55.41;100067.69;2084659;28;20390;-56
2022/03/10 04:58:42;;;;;;;;;;;;;;;17.32;55.40;100065.66;2087259;28;19963;-55
2022/03/10 04:59:42;;;;;;;;;;;;;;;17.31;55.41;100070.25;2091652;28;19919;-56
2022/03/10 05:00:42;;;;;;;;;;;;;;;17.31;55.41;100069.38;2093193;28;19923;-56
2022/03/10 05:01:43;;;;;;;;;;;;;;;17.31;55.06;100063.94;2086522;28;19920;-56
2022/03/10 05:02:43;;;;;;;;;;;;;;;17.32;55.26;100071.09;2090052;28;20243;-56
2022/03/10 05:03:43;;;;;;;;;;;;;;;17.32;55.29;100065.66;2089483;28;20313;-56
2022/03/10 05:04:43;;;;;;;;;;;;;;;17.31;55.10;100063.94;2091123;28;20226;-56
2022/03/10 05:05:45;;;;;;;;;;;;;;;17.33;55.40;100064.66;2091731;28;19912;-55
2022/03/10 05:06:46;;;;;;;;;;;;;;;17.33;55.27;100064.66;2093069;28;19920;-56
2022/03/10 05:07:46;;;;;;;;;;;;;;;17.34;55.29;100060.94;2088925;28;19916;-56
2022/03/10 05:08:46;;;;;;;;;;;;;;;17.34;55.37;100058.19;2090590;28;19916;-55
2022/03/10 05:09:46;;;;;;;;;;;;;;;17.34;55.27;100058.19;2091152;28;19963;-56
2022/03/10 05:10:47;;;;;;;;;;;;;;;17.34;55.29;100050.03;2094085;28;19999;-55
2022/03/10 05:11:47;;;;;;;;;;;;;;;17.35;55.30;100059.94;2093111;28;20362;-56
2022/03/10 05:12:48;;;;;;;;;;;;;;;17.33;55.46;100051.91;2088331;28;19928;-55
2022/03/10 05:13:49;;;;;;;;;;;;;;;17.34;55.56;100058.19;2091339;28;19920;-56
2022/03/10 05:14:49;;;;;;;;;;;;;;;17.33;55.20;100051.91;2087748;28;20003;-55
2022/03/10 05:15:49;;;;;;;;;;;;;;;17.34;55.36;100056.38;2093543;28;20011;-56
2022/03/10 05:16:50;;;;;;;;;;;;;;;17.33;55.43;100051.03;2093279;28;19920;-56
2022/03/10 05:17:51;;;;;;;;;;;;;;;17.35;55.49;100060.81;2090827;28;19934;-56
2022/03/10 05:18:51;;;;;;;;;;;;;;;17.34;55.44;100055.47;2091837;28;19915;-55